createdAt,value
2022-11-20T00:00:12.239Z,5.50
2022-11-20T00:00:54.585Z,5.50
2022-11-20T00:01:26.617Z,5.38
2022-11-20T00:01:58.726Z,5.38
2022-11-20T00:02:30.602Z,5.38
2022-11-20T00:03:03.326Z,5.38
2022-11-20T00:03:34.596Z,5.38
2022-11-20T00:04:06.513Z,5.38
2022-11-20T00:04:38.427Z,5.38
2022-11-20T00:05:10.973Z,5.38
2022-11-20T00:05:43.037Z,5.27
2022-11-20T00:06:14.560Z,5.27
2022-11-20T00:06:46.230Z,5.27
2022-11-20T00:07:18.360Z,5.27
2022-11-20T00:07:50.384Z,5.27
2022-11-20T00:08:22.472Z,5.27
2022-11-20T00:08:54.231Z,5.27
2022-11-20T00:09:10.657Z,5.27
2022-11-20T00:09:42.742Z,5.27
2022-11-20T00:09:58.229Z,5.27
2022-11-20T00:10:30.574Z,5.27
2022-11-20T00:11:02.926Z,5.27
2022-11-20T00:11:34.087Z,5.22
2022-11-20T00:12:06.230Z,5.22
2022-11-20T00:12:38.247Z,5.22
2022-11-20T00:13:10.160Z,5.27
2022-11-20T00:13:26.189Z,5.27
2022-11-20T00:13:57.932Z,5.27
2022-11-20T00:14:42.533Z,5.27
2022-11-20T00:15:14.717Z,5.27
2022-11-20T00:15:45.920Z,5.27
2022-11-20T00:16:18.021Z,5.27
2022-11-20T00:16:49.967Z,5.27
2022-11-20T00:17:22.142Z,5.27
2022-11-20T00:17:53.782Z,5.22
2022-11-20T00:18:10.027Z,5.22
2022-11-20T00:18:53.870Z,5.22
2022-11-20T00:19:25.937Z,5.22
2022-11-20T00:19:57.746Z,5.22
2022-11-20T00:20:30.121Z,5.22
2022-11-20T00:21:02.387Z,5.22
2022-11-20T00:21:33.751Z,5.22
2022-11-20T00:22:05.623Z,5.22
2022-11-20T00:22:37.623Z,5.11
2022-11-20T00:23:09.744Z,5.11
2022-11-20T00:23:42.251Z,5.11
2022-11-20T00:24:13.505Z,5.11
2022-11-20T00:24:45.555Z,5.11
2022-11-20T00:25:17.827Z,5.11
2022-11-20T00:25:49.652Z,5.11
2022-11-20T00:26:21.627Z,5.11
2022-11-20T00:26:53.398Z,5.11
2022-11-20T00:27:25.454Z,5.11
2022-11-20T00:27:57.717Z,5.00
2022-11-20T00:28:29.401Z,5.00
2022-11-20T00:29:01.594Z,5.00
2022-11-20T00:29:33.429Z,5.00
2022-11-20T00:30:09.981Z,5.00
2022-11-20T00:30:37.299Z,5.00
2022-11-20T00:31:09.430Z,5.00
2022-11-20T00:31:41.748Z,5.00
2022-11-20T00:32:13.449Z,5.00
2022-11-20T00:32:45.182Z,5.00
2022-11-20T00:33:17.178Z,5.00
2022-11-20T00:33:49.316Z,5.00
2022-11-20T00:34:21.697Z,5.00
2022-11-20T00:34:53.223Z,5.00
2022-11-20T00:35:09.580Z,5.00
2022-11-20T00:35:53.156Z,4.88
2022-11-20T00:36:25.173Z,4.88
2022-11-20T00:36:57.153Z,4.88
2022-11-20T00:37:29.007Z,4.88
2022-11-20T00:38:01.154Z,4.88
2022-11-20T00:38:33.193Z,4.88
2022-11-20T00:39:04.920Z,4.88
2022-11-20T00:39:36.970Z,4.88
2022-11-20T00:40:09.496Z,4.88
2022-11-20T00:40:41.260Z,4.88
2022-11-20T00:41:13.100Z,4.77
2022-11-20T00:41:44.923Z,4.77
2022-11-20T00:42:16.787Z,4.77
2022-11-20T00:42:48.833Z,4.77
2022-11-20T00:43:21.046Z,4.77
2022-11-20T00:43:52.831Z,4.77
2022-11-20T00:44:24.859Z,4.88
2022-11-20T00:44:56.957Z,4.88
2022-11-20T00:45:28.956Z,4.88
2022-11-20T00:46:00.796Z,4.88
2022-11-20T00:46:32.928Z,4.88
2022-11-20T00:47:04.707Z,4.88
2022-11-20T00:47:36.535Z,4.88
2022-11-20T00:48:08.611Z,4.88
2022-11-20T00:48:40.658Z,4.88
2022-11-20T00:49:13.020Z,4.88
2022-11-20T00:49:44.445Z,4.88
2022-11-20T00:50:16.748Z,4.88
2022-11-20T00:50:48.510Z,5.00
2022-11-20T00:51:20.645Z,5.00
2022-11-20T00:51:52.508Z,5.00
2022-11-20T00:52:24.490Z,5.00
2022-11-20T00:52:56.466Z,5.00
2022-11-20T00:53:28.509Z,5.00
2022-11-20T00:54:00.307Z,5.00
2022-11-20T00:54:32.488Z,5.00
2022-11-20T00:55:04.705Z,5.00
2022-11-20T00:55:36.374Z,5.00
2022-11-20T00:56:08.182Z,5.00
2022-11-20T00:56:24.385Z,5.00
2022-11-20T00:57:08.199Z,5.00
2022-11-20T00:57:40.451Z,5.00
2022-11-20T00:58:14.444Z,5.00
2022-11-20T00:58:44.056Z,5.00
2022-11-20T00:59:16.137Z,5.00
2022-11-20T00:59:48.178Z,5.11
2022-11-20T01:00:20.745Z,5.11
2022-11-20T01:00:52.557Z,5.11
2022-11-20T01:01:08.199Z,5.11
2022-11-20T01:01:40.063Z,5.11
2022-11-20T01:01:56.107Z,5.11
2022-11-20T01:02:28.145Z,5.11
2022-11-20T01:02:59.950Z,5.11
2022-11-20T01:03:16.218Z,5.11
2022-11-20T01:03:47.965Z,5.11
2022-11-20T01:04:32.167Z,5.11
2022-11-20T01:05:04.732Z,5.11
2022-11-20T01:05:35.804Z,5.11
2022-11-20T01:06:07.823Z,5.11
2022-11-20T01:06:40.040Z,5.11
2022-11-20T01:07:12.392Z,5.11
2022-11-20T01:07:43.661Z,5.11
2022-11-20T01:08:15.677Z,5.11
2022-11-20T01:08:47.827Z,5.11
2022-11-20T01:09:20.258Z,5.11
2022-11-20T01:09:51.824Z,5.11
2022-11-20T01:10:23.904Z,5.11
2022-11-20T01:10:55.687Z,5.11
2022-11-20T01:11:27.771Z,5.11
2022-11-20T01:11:59.709Z,5.11
2022-11-20T01:12:31.807Z,5.11
2022-11-20T01:13:04.360Z,5.11
2022-11-20T01:13:35.705Z,5.11
2022-11-20T01:14:07.401Z,5.11
2022-11-20T01:14:23.784Z,5.11
2022-11-20T01:15:08.655Z,5.11
2022-11-20T01:15:39.545Z,5.11
2022-11-20T01:16:12.008Z,5.11
2022-11-20T01:16:43.535Z,5.11
2022-11-20T01:17:15.396Z,5.11
2022-11-20T01:17:47.325Z,5.11
2022-11-20T01:18:19.486Z,5.11
2022-11-20T01:18:51.652Z,5.11
2022-11-20T01:19:07.429Z,5.11
2022-11-20T01:19:39.277Z,5.11
2022-11-20T01:19:55.378Z,5.11
2022-11-20T01:20:27.629Z,5.11
2022-11-20T01:20:59.050Z,5.11
2022-11-20T01:21:31.435Z,5.11
2022-11-20T01:22:04.035Z,5.11
2022-11-20T01:22:35.139Z,5.11
2022-11-20T01:23:07.073Z,5.11
2022-11-20T01:23:23.275Z,5.11
2022-11-20T01:23:55.087Z,5.11
2022-11-20T01:24:39.311Z,5.11
2022-11-20T01:25:11.744Z,5.11
2022-11-20T01:25:43.377Z,5.11
2022-11-20T01:26:14.947Z,5.11
2022-11-20T01:26:46.958Z,5.11
2022-11-20T01:27:19.096Z,5.11
2022-11-20T01:27:51.334Z,5.11
2022-11-20T01:28:07.063Z,5.11
2022-11-20T01:28:50.990Z,5.11
2022-11-20T01:29:23.249Z,5.11
2022-11-20T01:29:58.293Z,5.11
2022-11-20T01:30:27.112Z,5.11
2022-11-20T01:30:58.867Z,5.00
2022-11-20T01:31:30.927Z,5.00
2022-11-20T01:32:03.639Z,5.00
2022-11-20T01:32:34.696Z,5.00
2022-11-20T01:33:06.779Z,5.00
2022-11-20T01:33:38.818Z,5.00
2022-11-20T01:34:11.013Z,5.00
2022-11-20T01:34:43.761Z,5.00
2022-11-20T01:35:15.317Z,5.00
2022-11-20T01:35:46.593Z,5.00
2022-11-20T01:36:18.739Z,5.00
2022-11-20T01:36:50.606Z,5.00
2022-11-20T01:37:06.531Z,5.00
2022-11-20T01:37:38.412Z,5.00
2022-11-20T01:37:54.636Z,5.00
2022-11-20T01:38:26.583Z,5.00
2022-11-20T01:38:58.460Z,4.88
2022-11-20T01:39:30.656Z,4.88
2022-11-20T01:40:03.801Z,4.88
2022-11-20T01:40:34.428Z,4.77
2022-11-20T01:41:06.342Z,4.77
2022-11-20T01:41:38.351Z,4.77
2022-11-20T01:42:10.731Z,4.77
2022-11-20T01:42:42.712Z,4.77
2022-11-20T01:43:14.206Z,4.77
2022-11-20T01:43:46.396Z,4.77
2022-11-20T01:44:18.278Z,4.77
2022-11-20T01:44:50.266Z,4.77
2022-11-20T01:45:23.024Z,4.77
2022-11-20T01:45:38.259Z,4.77
2022-11-20T01:46:10.158Z,4.77
2022-11-20T01:46:54.234Z,4.77
2022-11-20T01:47:26.139Z,4.77
2022-11-20T01:47:58.129Z,4.77
2022-11-20T01:48:30.110Z,4.77
2022-11-20T01:49:02.750Z,4.77
2022-11-20T01:49:34.135Z,4.77
2022-11-20T01:50:06.167Z,4.72
2022-11-20T01:50:22.271Z,4.72
2022-11-20T01:51:05.991Z,4.72
2022-11-20T01:51:37.946Z,4.72
2022-11-20T01:52:10.088Z,4.72
2022-11-20T01:52:42.182Z,4.72
2022-11-20T01:53:13.876Z,4.61
2022-11-20T01:53:45.975Z,4.61
2022-11-20T01:54:17.681Z,4.61
2022-11-20T01:54:49.784Z,4.61
2022-11-20T01:55:22.440Z,4.61
2022-11-20T01:55:53.847Z,4.61
2022-11-20T01:56:25.769Z,4.50
2022-11-20T01:56:57.745Z,4.50
2022-11-20T01:57:29.689Z,4.50
2022-11-20T01:58:02.225Z,4.50
2022-11-20T01:58:33.553Z,4.50
2022-11-20T01:59:05.631Z,4.38
2022-11-20T01:59:22.500Z,4.38
2022-11-20T01:59:53.418Z,4.38
2022-11-20T02:00:37.969Z,4.38
2022-11-20T02:01:09.581Z,4.38
2022-11-20T02:01:41.676Z,4.38
2022-11-20T02:02:13.765Z,4.27
2022-11-20T02:02:45.643Z,4.27
2022-11-20T02:03:17.362Z,4.27
2022-11-20T02:03:49.488Z,4.22
2022-11-20T02:04:21.751Z,4.22
2022-11-20T02:04:53.396Z,4.22
2022-11-20T02:05:25.599Z,4.22
2022-11-20T02:05:57.387Z,4.22
2022-11-20T02:06:29.356Z,4.22
2022-11-20T02:07:02.272Z,4.22
2022-11-20T02:07:33.327Z,4.22
2022-11-20T02:08:05.454Z,4.22
2022-11-20T02:08:37.357Z,4.22
2022-11-20T02:09:09.340Z,4.22
2022-11-20T02:09:41.183Z,4.22
2022-11-20T02:10:13.818Z,4.11
2022-11-20T02:10:45.257Z,4.11
2022-11-20T02:11:17.243Z,4.11
2022-11-20T02:11:49.177Z,4.11
2022-11-20T02:12:05.350Z,4.00
2022-11-20T02:12:37.028Z,4.00
2022-11-20T02:12:53.034Z,4.00
2022-11-20T02:13:25.305Z,4.00
2022-11-20T02:13:56.991Z,4.00
2022-11-20T02:14:29.095Z,4.00
2022-11-20T02:15:03.335Z,3.88
2022-11-20T02:15:33.195Z,3.88
2022-11-20T02:16:05.231Z,3.88
2022-11-20T02:16:21.208Z,3.88
2022-11-20T02:16:52.961Z,3.88
2022-11-20T02:17:36.876Z,3.88
2022-11-20T02:18:08.732Z,3.88
2022-11-20T02:18:41.125Z,3.88
2022-11-20T02:19:12.930Z,3.88
2022-11-20T02:19:44.774Z,3.88
2022-11-20T02:20:17.165Z,3.88
2022-11-20T02:20:48.761Z,3.88
2022-11-20T02:21:05.288Z,3.77
2022-11-20T02:21:48.736Z,3.77
2022-11-20T02:22:20.769Z,3.77
2022-11-20T02:22:52.944Z,3.77
2022-11-20T02:23:24.744Z,3.77
2022-11-20T02:23:56.605Z,3.77
2022-11-20T02:24:28.793Z,3.77
2022-11-20T02:25:01.131Z,3.77
2022-11-20T02:25:32.594Z,3.88
2022-11-20T02:26:04.921Z,3.88
2022-11-20T02:26:36.655Z,3.77
2022-11-20T02:27:08.553Z,3.77
2022-11-20T02:27:40.495Z,3.77
2022-11-20T02:28:12.687Z,3.77
2022-11-20T02:28:44.424Z,3.77
2022-11-20T02:29:16.533Z,3.77
2022-11-20T02:29:48.429Z,3.77
2022-11-20T02:30:20.858Z,3.77
2022-11-20T02:30:52.683Z,3.77
2022-11-20T02:31:24.340Z,3.77
2022-11-20T02:31:56.286Z,3.77
2022-11-20T02:32:28.247Z,3.77
2022-11-20T02:33:00.357Z,3.77
2022-11-20T02:33:32.553Z,3.77
2022-11-20T02:34:04.879Z,3.77
2022-11-20T02:34:20.265Z,3.77
2022-11-20T02:34:52.317Z,3.77
2022-11-20T02:35:36.581Z,3.77
2022-11-20T02:36:08.161Z,3.77
2022-11-20T02:36:40.088Z,3.77
2022-11-20T02:37:12.319Z,3.77
2022-11-20T02:37:44.189Z,3.77
2022-11-20T02:38:15.956Z,3.77
2022-11-20T02:38:47.949Z,3.77
2022-11-20T02:39:04.807Z,3.77
2022-11-20T02:39:47.843Z,3.77
2022-11-20T02:40:20.297Z,3.77
2022-11-20T02:40:55.547Z,3.77
2022-11-20T02:41:23.863Z,3.88
2022-11-20T02:41:55.869Z,3.88
2022-11-20T02:42:28.039Z,3.88
2022-11-20T02:42:59.713Z,3.88
2022-11-20T02:43:31.957Z,3.88
2022-11-20T02:44:04.426Z,3.88
2022-11-20T02:44:35.872Z,3.88
2022-11-20T02:45:08.054Z,4.00
2022-11-20T02:45:39.749Z,4.00
2022-11-20T02:46:11.755Z,4.00
2022-11-20T02:46:43.717Z,4.00
2022-11-20T02:47:15.571Z,4.00
2022-11-20T02:47:47.588Z,4.00
2022-11-20T02:48:19.791Z,4.00
2022-11-20T02:48:51.770Z,4.00
2022-11-20T02:49:23.945Z,4.00
2022-11-20T02:49:55.530Z,4.00
2022-11-20T02:50:27.794Z,4.00
2022-11-20T02:50:59.571Z,4.00
2022-11-20T02:51:31.491Z,4.11
2022-11-20T02:52:04.326Z,4.11
2022-11-20T02:52:19.580Z,4.11
2022-11-20T02:52:51.467Z,4.11
2022-11-20T02:53:35.527Z,4.00
2022-11-20T02:54:07.312Z,4.00
2022-11-20T02:54:39.287Z,4.00
2022-11-20T02:55:11.721Z,4.00
2022-11-20T02:55:43.611Z,4.00
2022-11-20T02:56:15.162Z,4.00
2022-11-20T02:56:47.160Z,4.00
2022-11-20T02:57:04.349Z,4.00
2022-11-20T02:57:47.250Z,4.00
2022-11-20T02:58:19.312Z,4.00
2022-11-20T02:58:51.143Z,4.00
2022-11-20T02:59:23.533Z,4.00
2022-11-20T02:59:55.161Z,4.00
2022-11-20T03:00:27.555Z,4.11
2022-11-20T03:00:59.309Z,4.11
2022-11-20T03:01:31.318Z,4.11
2022-11-20T03:02:03.771Z,4.11
2022-11-20T03:02:35.161Z,4.11
2022-11-20T03:03:06.929Z,4.11
2022-11-20T03:03:38.926Z,4.11
2022-11-20T03:04:10.967Z,4.11
2022-11-20T03:04:43.226Z,4.11
2022-11-20T03:05:15.020Z,4.11
2022-11-20T03:05:46.869Z,4.11
2022-11-20T03:06:03.766Z,4.11
2022-11-20T03:06:34.808Z,4.11
2022-11-20T03:06:50.913Z,4.11
2022-11-20T03:07:22.786Z,4.11
2022-11-20T03:07:54.736Z,4.11
2022-11-20T03:08:10.978Z,4.11
2022-11-20T03:08:42.787Z,4.11
2022-11-20T03:09:26.685Z,4.11
2022-11-20T03:09:58.691Z,4.22
2022-11-20T03:10:31.048Z,4.22
2022-11-20T03:11:03.628Z,4.22
2022-11-20T03:11:34.726Z,4.22
2022-11-20T03:12:06.476Z,4.22
2022-11-20T03:12:38.600Z,4.22
2022-11-20T03:13:10.747Z,4.22
2022-11-20T03:13:42.895Z,4.22
2022-11-20T03:14:14.764Z,4.22
2022-11-20T03:14:51.580Z,4.22
2022-11-20T03:15:05.970Z,4.22
2022-11-20T03:15:46.470Z,4.22
2022-11-20T03:16:18.483Z,4.22
2022-11-20T03:16:50.411Z,4.22
2022-11-20T03:17:22.448Z,4.22
2022-11-20T03:17:54.333Z,4.22
2022-11-20T03:18:26.454Z,4.22
2022-11-20T03:18:58.237Z,4.22
2022-11-20T03:19:30.183Z,4.22
2022-11-20T03:20:03.534Z,4.22
2022-11-20T03:20:34.410Z,4.27
2022-11-20T03:21:06.150Z,4.27
2022-11-20T03:21:38.151Z,4.27
2022-11-20T03:22:10.191Z,4.27
2022-11-20T03:22:42.240Z,4.38
2022-11-20T03:23:14.123Z,4.38
2022-11-20T03:23:46.086Z,4.38
2022-11-20T03:24:02.963Z,4.38
2022-11-20T03:24:34.066Z,4.38
2022-11-20T03:24:50.175Z,4.38
2022-11-20T03:25:22.401Z,4.38
2022-11-20T03:25:53.980Z,4.38
2022-11-20T03:26:25.995Z,4.38
2022-11-20T03:26:58.086Z,4.38
2022-11-20T03:27:29.898Z,4.38
2022-11-20T03:28:02.580Z,4.38
2022-11-20T03:28:17.973Z,4.38
2022-11-20T03:28:49.881Z,4.38
2022-11-20T03:29:34.026Z,4.38
2022-11-20T03:30:06.998Z,4.38
2022-11-20T03:30:37.760Z,4.38
2022-11-20T03:31:10.005Z,4.38
2022-11-20T03:31:41.959Z,4.38
2022-11-20T03:32:13.865Z,4.38
2022-11-20T03:32:45.722Z,4.38
2022-11-20T03:33:17.725Z,4.50
2022-11-20T03:33:49.879Z,4.50
2022-11-20T03:34:21.709Z,4.50
2022-11-20T03:34:53.755Z,4.50
2022-11-20T03:35:25.932Z,4.50
2022-11-20T03:35:57.649Z,4.50
2022-11-20T03:36:29.706Z,4.50
2022-11-20T03:37:02.184Z,4.50
2022-11-20T03:37:17.637Z,4.50
2022-11-20T03:38:02.071Z,4.50
2022-11-20T03:38:36.734Z,4.50
2022-11-20T03:39:05.890Z,4.50
2022-11-20T03:39:37.332Z,4.50
2022-11-20T03:40:09.738Z,4.50
2022-11-20T03:40:41.574Z,4.50
2022-11-20T03:41:13.510Z,4.50
2022-11-20T03:41:45.273Z,4.50
2022-11-20T03:42:17.996Z,4.50
2022-11-20T03:42:49.431Z,4.50
2022-11-20T03:43:21.300Z,4.50
2022-11-20T03:43:53.380Z,4.61
2022-11-20T03:44:25.259Z,4.61
2022-11-20T03:44:57.239Z,4.61
2022-11-20T03:45:29.675Z,4.61
2022-11-20T03:46:01.582Z,4.61
2022-11-20T03:46:17.386Z,4.61
2022-11-20T03:46:49.051Z,4.61
2022-11-20T03:47:33.375Z,4.61
2022-11-20T03:48:05.477Z,4.61
2022-11-20T03:48:36.989Z,4.61
2022-11-20T03:49:09.141Z,4.61
2022-11-20T03:49:41.609Z,4.50
2022-11-20T03:50:14.186Z,4.50
2022-11-20T03:50:45.076Z,4.50
2022-11-20T03:51:01.730Z,4.50
2022-11-20T03:51:45.156Z,4.50
2022-11-20T03:52:16.951Z,4.50
2022-11-20T03:52:48.823Z,4.50
2022-11-20T03:53:20.896Z,4.50
2022-11-20T03:53:52.939Z,4.50
2022-11-20T03:54:25.047Z,4.50
2022-11-20T03:54:56.836Z,4.38
2022-11-20T03:55:29.161Z,4.38
2022-11-20T03:56:01.059Z,4.38
2022-11-20T03:56:33.144Z,4.38
2022-11-20T03:57:05.084Z,4.38
2022-11-20T03:57:36.579Z,4.38
2022-11-20T03:58:08.715Z,4.38
2022-11-20T03:58:40.705Z,4.38
2022-11-20T03:59:12.690Z,4.27
2022-11-20T03:59:44.761Z,4.27
2022-11-20T04:00:02.524Z,4.27
2022-11-20T04:00:32.804Z,4.27
2022-11-20T04:00:48.877Z,4.27
2022-11-20T04:01:20.688Z,4.27
2022-11-20T04:01:52.778Z,4.27
2022-11-20T04:02:24.493Z,4.27
2022-11-20T04:02:56.655Z,4.27
2022-11-20T04:03:28.510Z,4.22
2022-11-20T04:04:00.463Z,4.22
2022-11-20T04:04:17.058Z,4.22
2022-11-20T04:04:48.389Z,4.22
2022-11-20T04:05:33.018Z,4.22
2022-11-20T04:06:04.751Z,4.22
2022-11-20T04:06:36.314Z,4.22
2022-11-20T04:07:08.330Z,4.22
2022-11-20T04:07:40.504Z,4.11
2022-11-20T04:08:12.228Z,4.11
2022-11-20T04:08:45.910Z,4.11
2022-11-20T04:09:00.384Z,4.11
2022-11-20T04:09:44.511Z,4.11
2022-11-20T04:10:16.546Z,4.11
2022-11-20T04:10:48.143Z,4.11
2022-11-20T04:11:20.349Z,4.11
2022-11-20T04:11:52.266Z,4.11
2022-11-20T04:12:24.345Z,4.11
2022-11-20T04:12:56.130Z,4.11
2022-11-20T04:13:27.973Z,4.11
2022-11-20T04:14:00.108Z,4.11
2022-11-20T04:14:32.369Z,4.00
2022-11-20T04:15:06.556Z,4.00
2022-11-20T04:15:38.377Z,4.00
2022-11-20T04:16:08.019Z,4.00
2022-11-20T04:16:39.950Z,4.00
2022-11-20T04:17:11.905Z,4.00
2022-11-20T04:17:44.027Z,4.00
2022-11-20T04:18:00.013Z,4.00
2022-11-20T04:18:31.871Z,4.00
2022-11-20T04:18:48.042Z,4.00
2022-11-20T04:19:19.852Z,4.00
2022-11-20T04:19:51.701Z,4.00
2022-11-20T04:20:24.228Z,4.11
2022-11-20T04:20:55.780Z,4.11
2022-11-20T04:21:27.867Z,4.11
2022-11-20T04:21:59.735Z,4.11
2022-11-20T04:22:15.757Z,4.11
2022-11-20T04:22:47.558Z,4.11
2022-11-20T04:23:31.840Z,4.11
2022-11-20T04:24:04.469Z,4.11
2022-11-20T04:24:35.576Z,4.11
2022-11-20T04:25:07.819Z,4.11
2022-11-20T04:25:39.636Z,4.11
2022-11-20T04:26:11.434Z,4.11
2022-11-20T04:26:43.615Z,4.11
2022-11-20T04:26:59.745Z,4.11
2022-11-20T04:27:43.637Z,4.11
2022-11-20T04:28:15.486Z,4.11
2022-11-20T04:28:47.270Z,4.11
2022-11-20T04:29:19.813Z,4.11
2022-11-20T04:29:51.471Z,4.11
2022-11-20T04:30:27.147Z,4.11
2022-11-20T04:30:55.918Z,4.11
2022-11-20T04:31:28.333Z,4.00
2022-11-20T04:32:00.365Z,4.00
2022-11-20T04:32:31.254Z,4.00
2022-11-20T04:33:04.299Z,4.00
2022-11-20T04:33:35.258Z,4.00
2022-11-20T04:34:07.121Z,4.00
2022-11-20T04:34:39.275Z,4.00
2022-11-20T04:35:11.609Z,4.00
2022-11-20T04:35:43.557Z,4.00
2022-11-20T04:36:15.094Z,4.00
2022-11-20T04:36:47.160Z,4.00
2022-11-20T04:37:19.171Z,4.00
2022-11-20T04:37:51.066Z,4.00
2022-11-20T04:38:07.213Z,4.00
2022-11-20T04:38:39.074Z,3.88
2022-11-20T04:39:23.677Z,3.88
2022-11-20T04:39:55.062Z,3.88
2022-11-20T04:40:27.102Z,3.88
2022-11-20T04:40:59.007Z,3.88
2022-11-20T04:41:30.913Z,3.88
2022-11-20T04:42:03.634Z,3.88
2022-11-20T04:42:34.800Z,3.88
2022-11-20T04:43:06.826Z,3.88
2022-11-20T04:43:38.858Z,3.88
2022-11-20T04:44:10.820Z,3.88
2022-11-20T04:44:42.821Z,3.88
2022-11-20T04:44:59.020Z,3.88
2022-11-20T04:45:43.280Z,4.00
2022-11-20T04:46:14.959Z,4.00
2022-11-20T04:46:46.476Z,4.00
2022-11-20T04:47:18.643Z,4.00
2022-11-20T04:47:50.588Z,4.00
2022-11-20T04:48:22.640Z,4.00
2022-11-20T04:48:54.788Z,4.00
2022-11-20T04:49:26.589Z,4.11
2022-11-20T04:49:58.733Z,4.11
2022-11-20T04:50:30.934Z,4.11
2022-11-20T04:51:03.696Z,4.11
2022-11-20T04:51:34.561Z,4.11
2022-11-20T04:52:06.493Z,4.11
2022-11-20T04:52:38.551Z,4.22
2022-11-20T04:53:10.394Z,4.22
2022-11-20T04:53:42.488Z,4.22
2022-11-20T04:54:14.563Z,4.22
2022-11-20T04:54:46.331Z,4.22
2022-11-20T04:55:18.752Z,4.22
2022-11-20T04:55:50.245Z,4.22
2022-11-20T04:56:22.442Z,4.22
2022-11-20T04:56:54.425Z,4.22
2022-11-20T04:57:26.266Z,4.27
2022-11-20T04:57:58.210Z,4.27
2022-11-20T04:58:30.264Z,4.27
2022-11-20T04:59:03.060Z,4.27
2022-11-20T04:59:34.389Z,4.27
2022-11-20T05:00:07.014Z,4.27
2022-11-20T05:00:38.088Z,4.27
2022-11-20T05:01:10.200Z,4.27
2022-11-20T05:01:42.273Z,4.27
2022-11-20T05:02:14.316Z,4.27
2022-11-20T05:02:30.209Z,4.38
2022-11-20T05:03:02.952Z,4.38
2022-11-20T05:03:46.017Z,4.38
2022-11-20T05:04:18.036Z,4.38
2022-11-20T05:04:49.828Z,4.38
2022-11-20T05:05:22.289Z,4.38
2022-11-20T05:05:54.330Z,4.50
2022-11-20T05:06:26.055Z,4.50
2022-11-20T05:06:57.997Z,4.50
2022-11-20T05:07:14.233Z,4.50
2022-11-20T05:07:57.952Z,4.50
2022-11-20T05:08:14.209Z,4.50
2022-11-20T05:08:57.861Z,4.50
2022-11-20T05:09:29.941Z,4.50
2022-11-20T05:10:02.376Z,4.61
2022-11-20T05:10:33.839Z,4.61
2022-11-20T05:11:05.726Z,4.61
2022-11-20T05:11:37.666Z,4.61
2022-11-20T05:12:09.526Z,4.61
2022-11-20T05:12:41.589Z,4.61
2022-11-20T05:13:13.739Z,4.61
2022-11-20T05:13:45.669Z,4.61
2022-11-20T05:14:17.473Z,4.72
2022-11-20T05:14:49.328Z,4.72
2022-11-20T05:15:21.922Z,4.72
2022-11-20T05:15:53.725Z,4.72
2022-11-20T05:16:25.423Z,4.72
2022-11-20T05:16:57.536Z,4.72
2022-11-20T05:17:13.640Z,4.72
2022-11-20T05:17:45.328Z,4.77
2022-11-20T05:18:29.560Z,4.77
2022-11-20T05:19:01.293Z,4.77
2022-11-20T05:19:33.491Z,4.88
2022-11-20T05:20:05.671Z,4.88
2022-11-20T05:20:37.284Z,4.88
2022-11-20T05:21:09.105Z,4.88
2022-11-20T05:21:41.127Z,4.88
2022-11-20T05:21:57.374Z,4.88
2022-11-20T05:22:41.230Z,4.88
2022-11-20T05:23:13.380Z,4.88
2022-11-20T05:23:45.097Z,5.00
2022-11-20T05:24:17.080Z,5.00
2022-11-20T05:24:49.222Z,5.00
2022-11-20T05:25:21.456Z,5.00
2022-11-20T05:25:58.556Z,5.00
2022-11-20T05:26:25.155Z,5.00
2022-11-20T05:26:57.071Z,5.00
2022-11-20T05:27:29.217Z,5.00
2022-11-20T05:28:00.997Z,5.00
2022-11-20T05:28:33.277Z,5.00
2022-11-20T05:29:05.251Z,5.00
2022-11-20T05:29:36.947Z,5.00
2022-11-20T05:30:09.757Z,5.00
2022-11-20T05:30:40.921Z,5.00
2022-11-20T05:31:13.076Z,5.00
2022-11-20T05:31:45.072Z,5.00
2022-11-20T05:32:16.644Z,5.00
2022-11-20T05:32:48.761Z,5.11
2022-11-20T05:33:20.818Z,5.11
2022-11-20T05:33:52.782Z,5.11
2022-11-20T05:34:24.776Z,5.11
2022-11-20T05:34:56.651Z,5.11
2022-11-20T05:35:28.938Z,5.11
2022-11-20T05:36:00.786Z,5.11
2022-11-20T05:36:32.729Z,5.11
2022-11-20T05:37:04.999Z,5.11
2022-11-20T05:37:36.679Z,5.11
2022-11-20T05:38:08.781Z,5.11
2022-11-20T05:38:40.487Z,5.11
2022-11-20T05:39:12.845Z,5.11
2022-11-20T05:39:28.675Z,5.11
2022-11-20T05:40:00.689Z,5.11
2022-11-20T05:40:44.683Z,5.11
2022-11-20T05:41:16.195Z,5.11
2022-11-20T05:41:48.396Z,5.22
2022-11-20T05:42:20.530Z,5.22
2022-11-20T05:42:52.423Z,5.22
2022-11-20T05:43:24.505Z,5.22
2022-11-20T05:43:56.268Z,5.22
2022-11-20T05:44:28.377Z,5.22
2022-11-20T05:45:00.304Z,5.11
2022-11-20T05:45:32.756Z,5.11
2022-11-20T05:46:04.748Z,5.11
2022-11-20T05:46:36.314Z,5.11
2022-11-20T05:47:08.172Z,5.11
2022-11-20T05:47:40.050Z,5.11
2022-11-20T05:47:56.296Z,5.11
2022-11-20T05:48:28.068Z,5.11
2022-11-20T05:48:44.213Z,5.11
2022-11-20T05:49:16.198Z,5.11
2022-11-20T05:49:47.942Z,5.11
2022-11-20T05:50:20.232Z,5.11
2022-11-20T05:50:52.128Z,5.11
2022-11-20T05:51:24.296Z,5.11
2022-11-20T05:51:55.910Z,5.11
2022-11-20T05:52:12.071Z,5.11
2022-11-20T05:52:43.909Z,5.11
2022-11-20T05:53:28.114Z,5.11
2022-11-20T05:53:59.778Z,5.11
2022-11-20T05:54:31.822Z,5.22
2022-11-20T05:55:05.510Z,5.22
2022-11-20T05:55:35.878Z,5.22
2022-11-20T05:56:07.824Z,5.11
2022-11-20T05:56:39.818Z,5.11
2022-11-20T05:56:55.870Z,5.11
2022-11-20T05:57:39.755Z,5.11
2022-11-20T05:58:11.874Z,5.11
2022-11-20T05:58:43.695Z,5.11
2022-11-20T05:59:15.647Z,5.11
2022-11-20T05:59:47.576Z,5.11
2022-11-20T06:00:20.040Z,5.11
2022-11-20T06:00:51.783Z,5.11
2022-11-20T06:01:23.598Z,5.11
2022-11-20T06:01:55.528Z,5.11
2022-11-20T06:02:27.712Z,5.22
2022-11-20T06:02:59.666Z,5.22
2022-11-20T06:03:31.481Z,5.22
2022-11-20T06:04:04.348Z,5.22
2022-11-20T06:04:35.516Z,5.22
2022-11-20T06:05:07.618Z,5.22
2022-11-20T06:05:39.406Z,5.22
2022-11-20T06:05:55.765Z,5.22
2022-11-20T06:06:27.261Z,5.22
2022-11-20T06:06:43.709Z,5.22
2022-11-20T06:07:15.597Z,5.22
2022-11-20T06:07:47.144Z,5.22
2022-11-20T06:08:19.372Z,5.11
2022-11-20T06:08:51.400Z,5.11
2022-11-20T06:09:23.662Z,5.11
2022-11-20T06:09:55.500Z,5.11
2022-11-20T06:10:11.515Z,5.11
2022-11-20T06:10:43.398Z,5.11
2022-11-20T06:11:27.249Z,5.11
2022-11-20T06:11:59.060Z,5.11
2022-11-20T06:12:31.109Z,5.11
2022-11-20T06:13:04.224Z,5.11
2022-11-20T06:13:39.133Z,5.11
2022-11-20T06:14:06.949Z,5.11
2022-11-20T06:14:39.008Z,5.11
2022-11-20T06:15:12.152Z,5.11
2022-11-20T06:15:43.319Z,5.11
2022-11-20T06:16:15.030Z,5.11
2022-11-20T06:16:46.881Z,5.11
2022-11-20T06:17:19.074Z,5.11
2022-11-20T06:17:51.027Z,5.11
2022-11-20T06:18:23.009Z,5.11
2022-11-20T06:18:54.869Z,5.11
2022-11-20T06:19:10.943Z,5.11
2022-11-20T06:19:54.858Z,5.11
2022-11-20T06:20:27.135Z,5.11
2022-11-20T06:20:58.885Z,5.11
2022-11-20T06:21:30.643Z,5.11
2022-11-20T06:22:03.522Z,5.11
2022-11-20T06:22:34.800Z,5.11
2022-11-20T06:23:06.545Z,5.11
2022-11-20T06:23:39.431Z,5.11
2022-11-20T06:23:54.880Z,5.11
2022-11-20T06:24:26.544Z,5.11
2022-11-20T06:24:42.961Z,5.11
2022-11-20T06:25:15.048Z,5.11
2022-11-20T06:25:46.500Z,5.11
2022-11-20T06:26:18.497Z,5.11
2022-11-20T06:26:50.524Z,5.11
2022-11-20T06:27:22.600Z,5.11
2022-11-20T06:27:54.560Z,5.11
2022-11-20T06:28:26.439Z,5.11
2022-11-20T06:28:58.515Z,5.11
2022-11-20T06:29:33.794Z,5.11
2022-11-20T06:30:05.738Z,5.11
2022-11-20T06:30:34.494Z,5.11
2022-11-20T06:31:06.453Z,5.11
2022-11-20T06:31:38.316Z,5.11
2022-11-20T06:32:10.452Z,5.11
2022-11-20T06:32:26.376Z,5.11
2022-11-20T06:32:58.267Z,5.11
2022-11-20T06:33:42.474Z,5.11
2022-11-20T06:34:14.310Z,5.11
2022-11-20T06:34:46.088Z,5.11
2022-11-20T06:35:18.499Z,5.11
2022-11-20T06:35:51.634Z,5.11
2022-11-20T06:36:22.344Z,5.11
2022-11-20T06:36:54.293Z,5.11
2022-11-20T06:37:10.277Z,5.11
2022-11-20T06:37:54.173Z,5.11
2022-11-20T06:38:26.127Z,5.11
2022-11-20T06:38:58.232Z,5.11
2022-11-20T06:39:29.954Z,5.11
2022-11-20T06:40:02.645Z,5.11
2022-11-20T06:40:34.034Z,5.11
2022-11-20T06:41:05.991Z,5.11
2022-11-20T06:41:37.818Z,5.11
2022-11-20T06:42:09.963Z,5.11
2022-11-20T06:42:41.880Z,5.11
2022-11-20T06:43:14.132Z,5.11
2022-11-20T06:43:45.737Z,5.11
2022-11-20T06:44:17.692Z,5.11
2022-11-20T06:44:49.831Z,5.11
2022-11-20T06:45:22.393Z,5.11
2022-11-20T06:45:54.001Z,5.11
2022-11-20T06:46:09.930Z,5.11
2022-11-20T06:46:41.633Z,5.11
2022-11-20T06:47:25.831Z,5.22
2022-11-20T06:47:57.620Z,5.22
2022-11-20T06:48:29.539Z,5.22
2022-11-20T06:49:01.979Z,5.22
2022-11-20T06:49:33.962Z,5.22
2022-11-20T06:50:05.839Z,5.22
2022-11-20T06:50:37.642Z,5.22
2022-11-20T06:51:09.631Z,5.22
2022-11-20T06:51:41.516Z,5.22
2022-11-20T06:52:14.026Z,5.22
2022-11-20T06:52:45.527Z,5.22
2022-11-20T06:53:17.504Z,5.22
2022-11-20T06:53:49.480Z,5.22
2022-11-20T06:54:21.730Z,5.22
2022-11-20T06:54:53.499Z,5.22
2022-11-20T06:55:09.927Z,5.22
2022-11-20T06:55:53.531Z,5.22
2022-11-20T06:56:25.555Z,5.22